Time;durP1;ratioP1;P1;durP2;ratioP2;P2;SDS_P1;SDS_P2;PMS_P1;PMS_P2;Temp;Humidity;BMP_temperature;BMP_pressure;BME280_temperature;BME280_humidity;BME280_pressure;Samples;Min_cycle;Max_cycle;Signal;HPM_P1;HPM_P2
2023/04/30 00:00:09;;;;;;;;;;;;;;;;;;5094365;28;20457;-68
2023/04/30 00:02:35;;;;;;;;;;;;;;;;;;5094589;28;20360;-68
2023/04/30 00:05:01;;;;;;;;;;;;;;;;;;5094536;28;19915;-68
2023/04/30 00:07:27;;;;;;;;;;;;;;;;;;5094123;28;19905;-68
2023/04/30 00:09:53;;;;;;;;;;;;;;;;;;5094733;28;19908;-68
2023/04/30 00:12:19;;;;;;;;;;;;;;;;;;5094027;28;20371;-68
2023/04/30 00:14:45;;;;;;;;;;;;;;;;;;5094382;28;20427;-68
2023/04/30 00:17:11;;;;;;;;;;;;;;;;;;5094314;28;20003;-68
2023/04/30 00:19:37;;;;;;;;;;;;;;;;;;5093818;28;19966;-68
2023/04/30 00:22:04;;;;;;;;;;;;;;;;;;5094271;28;19961;-67
2023/04/30 00:24:30;;;;;;;;;;;;;;;;;;5094158;28;19955;-68
2023/04/30 00:26:56;;;;;;;;;;;;;;;;;;5094037;28;20002;-68
2023/04/30 00:29:22;;;;;;;;;;;;;;;;;;5094130;28;20348;-68
2023/04/30 00:31:48;;;;;;;;;;;;;;;;;;5094176;28;20288;-68
2023/04/30 00:34:14;;;;;;;;;;;;;;;;;;5093421;28;19971;-68
2023/04/30 00:36:40;;;;;;;;;;;;;;;;;;5094287;28;19908;-68
2023/04/30 00:39:06;;;;;;;;;;;;;;;;;;5093969;28;19916;-68
2023/04/30 00:41:32;;;;;;;;;;;;;;;;;;5093567;28;19912;-68
2023/04/30 00:43:57;;;;;;;;;;;;;;;;;;5093901;28;19962;-68
2023/04/30 00:46:23;;;;;;;;;;;;;;;;;;5093937;28;19908;-67
2023/04/30 00:48:49;;;;;;;;;;;;;;;;;;5093582;28;19955;-68
2023/04/30 00:51:15;;;;;;;;;;;;;;;;;;5075830;28;19930;-68
2023/04/30 00:53:41;;;;;;;;;;;;;;;;;;5093941;28;20443;-68
2023/04/30 00:56:07;;;;;;;;;;;;;;;;;;5093404;28;19909;-68
2023/04/30 00:58:33;;;;;;;;;;;;;;;;;;5093571;28;19920;-68
2023/04/30 01:00:59;;;;;;;;;;;;;;;;;;5093763;28;20440;-68
2023/04/30 01:03:25;;;;;;;;;;;;;;;;;;5093382;28;19912;-68
2023/04/30 01:05:52;;;;;;;;;;;;;;;;;;5093781;28;19978;-68
2023/04/30 01:08:18;;;;;;;;;;;;;;;;;;5093711;28;19908;-68
2023/04/30 01:10:44;;;;;;;;;;;;;;;;;;5093311;28;20430;-69
2023/04/30 01:13:10;;;;;;;;;;;;;;;;;;5093701;28;19909;-68
2023/04/30 01:15:36;;;;;;;;;;;;;;;;;;5093366;28;20376;-68
2023/04/30 01:18:02;;;;;;;;;;;;;;;;;;5075443;28;20410;-68
2023/04/30 01:20:28;;;;;;;;;;;;;;;;;;5093642;28;20257;-67
2023/04/30 01:22:54;;;;;;;;;;;;;;;;;;5093154;28;20352;-68
2023/04/30 01:25:20;;;;;;;;;;;;;;;;;;5093513;28;20314;-68
2023/04/30 01:27:46;;;;;;;;;;;;;;;;;;5075485;28;19930;-69
2023/04/30 01:30:12;;;;;;;;;;;;;;;;;;5074994;28;19908;-69
2023/04/30 01:32:38;;;;;;;;;;;;;;;;;;5093761;28;20004;-68
2023/04/30 01:35:04;;;;;;;;;;;;;;;;;;5093444;28;19908;-68
2023/04/30 01:37:30;;;;;;;;;;;;;;;;;;5074876;28;20361;-68
2023/04/30 01:39:56;;;;;;;;;;;;;;;;;;5093562;28;19912;-68
2023/04/30 01:42:22;;;;;;;;;;;;;;;;;;5075261;28;19908;-68
2023/04/30 01:44:48;;;;;;;;;;;;;;;;;;5094031;28;20002;-68
2023/04/30 01:47:14;;;;;;;;;;;;;;;;;;5097196;28;19908;-68
2023/04/30 01:49:40;;;;;;;;;;;;;;;;;;5097161;28;19960;-68
2023/04/30 01:52:06;;;;;;;;;;;;;;;;;;5096655;28;20010;-68
2023/04/30 01:54:32;;;;;;;;;;;;;;;;;;5078833;28;19927;-68
2023/04/30 01:56:58;;;;;;;;;;;;;;;;;;5097106;28;19908;-68
2023/04/30 01:59:24;;;;;;;;;;;;;;;;;;5096306;28;19942;-66
2023/04/30 02:01:50;;;;;;;;;;;;;;;;;;5096874;28;19939;-69
2023/04/30 02:04:16;;;;;;;;;;;;;;;;;;5096839;28;19915;-66
2023/04/30 02:06:42;;;;;;;;;;;;;;;;;;5096353;28;19908;-66
2023/04/30 02:09:09;;;;;;;;;;;;;;;;;;5096785;28;19912;-69
2023/04/30 02:11:35;;;;;;;;;;;;;;;;;;5096750;28;19954;-66
2023/04/30 02:14:01;;;;;;;;;;;;;;;;;;5078156;28;19908;-66
2023/04/30 02:16:27;;;;;;;;;;;;;;;;;;5078514;28;20333;-66
2023/04/30 02:18:53;;;;;;;;;;;;;;;;;;5096340;28;20010;-66
2023/04/30 02:21:20;;;;;;;;;;;;;;;;;;5078419;28;19977;-66
2023/04/30 02:23:46;;;;;;;;;;;;;;;;;;5096521;28;19908;-66
2023/04/30 02:26:12;;;;;;;;;;;;;;;;;;5096119;28;20356;-67
2023/04/30 02:28:38;;;;;;;;;;;;;;;;;;5096422;28;19916;-66
2023/04/30 02:31:03;;;;;;;;;;;;;;;;;;5096362;28;19908;-68
2023/04/30 02:33:29;;;;;;;;;;;;;;;;;;5095953;28;19993;-69
2023/04/30 02:35:55;;;;;;;;;;;;;;;;;;5096366;28;19913;-68
2023/04/30 02:38:21;;;;;;;;;;;;;;;;;;5096199;28;19916;-68
2023/04/30 02:40:47;;;;;;;;;;;;;;;;;;5095838;28;19999;-68
2023/04/30 02:43:13;;;;;;;;;;;;;;;;;;5096321;28;19908;-68
2023/04/30 02:45:40;;;;;;;;;;;;;;;;;;5096060;28;19912;-68
2023/04/30 02:48:06;;;;;;;;;;;;;;;;;;5095656;28;20276;-68
2023/04/30 02:50:32;;;;;;;;;;;;;;;;;;5095944;28;19912;-66
2023/04/30 02:52:58;;;;;;;;;;;;;;;;;;5095870;28;19915;-66
2023/04/30 02:55:24;;;;;;;;;;;;;;;;;;5095367;28;19909;-66
2023/04/30 02:57:50;;;;;;;;;;;;;;;;;;5095998;28;19927;-66
2023/04/30 03:00:16;;;;;;;;;;;;;;;;;;5095796;28;19915;-66
2023/04/30 03:02:42;;;;;;;;;;;;;;;;;;5077269;28;20305;-66
2023/04/30 03:05:08;;;;;;;;;;;;;;;;;;5095836;28;19908;-66
2023/04/30 03:07:34;;;;;;;;;;;;;;;;;;5095706;28;19908;-66
2023/04/30 03:10:00;;;;;;;;;;;;;;;;;;5095166;28;19908;-66
2023/04/30 03:12:26;;;;;;;;;;;;;;;;;;5077447;28;19908;-66
2023/04/30 03:14:52;;;;;;;;;;;;;;;;;;5095510;28;19915;-66
2023/04/30 03:17:18;;;;;;;;;;;;;;;;;;5095257;28;19953;-66
2023/04/30 03:19:44;;;;;;;;;;;;;;;;;;5095360;28;19916;-66
2023/04/30 03:22:10;;;;;;;;;;;;;;;;;;5095093;28;20024;-66
2023/04/30 03:24:35;;;;;;;;;;;;;;;;;;5095299;28;19908;-66
2023/04/30 03:27:02;;;;;;;;;;;;;;;;;;5095229;28;19908;-67
2023/04/30 03:29:28;;;;;;;;;;;;;;;;;;5076776;28;19915;-66
2023/04/30 03:31:54;;;;;;;;;;;;;;;;;;5095288;28;19908;-68
2023/04/30 03:34:20;;;;;;;;;;;;;;;;;;5095177;28;19908;-68
2023/04/30 03:36:46;;;;;;;;;;;;;;;;;;5076498;28;19962;-68
2023/04/30 03:39:12;;;;;;;;;;;;;;;;;;5095050;28;20011;-68
2023/04/30 03:41:38;;;;;;;;;;;;;;;;;;5094966;28;19912;-68
2023/04/30 03:44:04;;;;;;;;;;;;;;;;;;5076353;28;19922;-68
2023/04/30 03:46:30;;;;;;;;;;;;;;;;;;5076787;28;19908;-68
2023/04/30 03:48:55;;;;;;;;;;;;;;;;;;5076712;28;19908;-68
2023/04/30 03:51:21;;;;;;;;;;;;;;;;;;5076316;28;19915;-68
2023/04/30 03:53:47;;;;;;;;;;;;;;;;;;5076621;28;19957;-68
2023/04/30 03:56:13;;;;;;;;;;;;;;;;;;5094789;28;19908;-67
2023/04/30 03:58:39;;;;;;;;;;;;;;;;;;5094404;28;20019;-69
2023/04/30 04:01:05;;;;;;;;;;;;;;;;;;5095116;28;19912;-67
2023/04/30 04:03:31;;;;;;;;;;;;;;;;;;5094753;28;19908;-69
2023/04/30 04:05:57;;;;;;;;;;;;;;;;;;5094186;28;19944;-67
2023/04/30 04:08:23;;;;;;;;;;;;;;;;;;5094214;28;19916;-68
2023/04/30 04:10:49;;;;;;;;;;;;;;;;;;5094487;28;19999;-68
2023/04/30 04:13:15;;;;;;;;;;;;;;;;;;5094025;28;19935;-69
2023/04/30 04:15:41;;;;;;;;;;;;;;;;;;5094426;28;19941;-68
2023/04/30 04:18:07;;;;;;;;;;;;;;;;;;5094254;28;20281;-68
2023/04/30 04:20:33;;;;;;;;;;;;;;;;;;5093974;28;19913;-68
2023/04/30 04:22:59;;;;;;;;;;;;;;;;;;5094335;28;20312;-69
2023/04/30 04:25:26;;;;;;;;;;;;;;;;;;5094237;28;20003;-69
2023/04/30 04:27:52;;;;;;;;;;;;;;;;;;5076031;28;19931;-69
2023/04/30 04:30:18;;;;;;;;;;;;;;;;;;5094791;28;20344;-68
2023/04/30 04:32:49;;;;;;;;;;;;;;;;;;5093832;28;20360;-67
2023/04/30 04:35:15;;;;;;;;;;;;;;;;;;5094147;28;20421;-68
2023/04/30 04:37:41;;;;;;;;;;;;;;;;;;5093983;28;19908;-70
2023/04/30 04:40:07;;;;;;;;;;;;;;;;;;5093705;28;19943;-66
2023/04/30 04:42:33;;;;;;;;;;;;;;;;;;5075890;28;20246;-67
2023/04/30 04:44:59;;;;;;;;;;;;;;;;;;5093994;28;19915;-69
2023/04/30 04:47:26;;;;;;;;;;;;;;;;;;5093620;28;19913;-69
2023/04/30 04:49:52;;;;;;;;;;;;;;;;;;5093902;28;19908;-68
2023/04/30 04:52:18;;;;;;;;;;;;;;;;;;5093935;28;19968;-68
2023/04/30 04:54:44;;;;;;;;;;;;;;;;;;5093560;28;19915;-68
2023/04/30 04:57:10;;;;;;;;;;;;;;;;;;5093853;28;20280;-68
2023/04/30 04:59:36;;;;;;;;;;;;;;;;;;5093573;28;19927;-67
2023/04/30 05:02:02;;;;;;;;;;;;;;;;;;5093534;28;19961;-67
2023/04/30 05:04:29;;;;;;;;;;;;;;;;;;5094161;28;20327;-68
2023/04/30 05:06:55;;;;;;;;;;;;;;;;;;5093732;28;19912;-66
2023/04/30 05:09:21;;;;;;;;;;;;;;;;;;5075574;28;19973;-67
2023/04/30 05:11:48;;;;;;;;;;;;;;;;;;5093783;28;20352;-68
2023/04/30 05:14:13;;;;;;;;;;;;;;;;;;5093652;28;19908;-67
2023/04/30 05:16:39;;;;;;;;;;;;;;;;;;5075166;28;20257;-67
2023/04/30 05:19:08;;;;;;;;;;;;;;;;;;5093556;28;20330;-69
2023/04/30 05:21:34;;;;;;;;;;;;;;;;;;5079625;28;19912;-68
2023/04/30 05:24:00;;;;;;;;;;;;;;;;;;5079195;28;20003;-68
2023/04/30 05:26:26;;;;;;;;;;;;;;;;;;5097697;28;19909;-69
2023/04/30 05:28:52;;;;;;;;;;;;;;;;;;5097162;28;19915;-68
2023/04/30 05:31:18;;;;;;;;;;;;;;;;;;5079446;28;20383;-69
2023/04/30 05:33:44;;;;;;;;;;;;;;;;;;5097488;28;19931;-68
2023/04/30 05:36:10;;;;;;;;;;;;;;;;;;5097048;28;19914;-68
2023/04/30 05:38:36;;;;;;;;;;;;;;;;;;5079157;28;19916;-69
2023/04/30 05:41:02;;;;;;;;;;;;;;;;;;5097479;28;19908;-69
2023/04/30 05:43:28;;;;;;;;;;;;;;;;;;5097171;28;20004;-69
2023/04/30 05:45:54;;;;;;;;;;;;;;;;;;5097240;28;19934;-69
2023/04/30 05:48:20;;;;;;;;;;;;;;;;;;5097293;28;19961;-69
2023/04/30 05:50:45;;;;;;;;;;;;;;;;;;5096831;28;19961;-69
2023/04/30 05:53:11;;;;;;;;;;;;;;;;;;5078914;28;19908;-69
2023/04/30 05:55:37;;;;;;;;;;;;;;;;;;5097130;28;20249;-69
2023/04/30 05:58:03;;;;;;;;;;;;;;;;;;5096355;28;19920;-68
2023/04/30 06:00:30;;;;;;;;;;;;;;;;;;5097653;28;20356;-69
2023/04/30 06:02:56;;;;;;;;;;;;;;;;;;5078765;28;19908;-69
2023/04/30 06:05:22;;;;;;;;;;;;;;;;;;5096478;28;19909;-69
2023/04/30 06:07:47;;;;;;;;;;;;;;;;;;5097032;28;19954;-68
2023/04/30 06:10:13;;;;;;;;;;;;;;;;;;5078553;28;19954;-68
2023/04/30 06:12:40;;;;;;;;;;;;;;;;;;5096676;28;19915;-68
2023/04/30 06:15:05;;;;;;;;;;;;;;;;;;5096672;28;19912;-69
2023/04/30 06:17:31;;;;;;;;;;;;;;;;;;5096503;28;20057;-68
2023/04/30 06:20:01;;;;;;;;;;;;;;;;;;5077488;28;19965;-69
2023/04/30 06:22:27;;;;;;;;;;;;;;;;;;5078473;28;19911;-68
2023/04/30 06:24:53;;;;;;;;;;;;;;;;;;5078382;28;19915;-68
2023/04/30 06:27:18;;;;;;;;;;;;;;;;;;5077873;28;19923;-68
2023/04/30 06:29:45;;;;;;;;;;;;;;;;;;5096419;28;19908;-68
2023/04/30 06:32:11;;;;;;;;;;;;;;;;;;5077458;28;20355;-69
2023/04/30 06:34:37;;;;;;;;;;;;;;;;;;5078162;28;19908;-68
2023/04/30 06:37:03;;;;;;;;;;;;;;;;;;5096400;28;19915;-68
2023/04/30 06:39:29;;;;;;;;;;;;;;;;;;5095774;28;19916;-68
2023/04/30 06:45:02;;;;;;;;;;;;;;;;;;5091295;27;19923;-67
2023/04/30 06:47:28;;;;;;;;;;;;;;;;;;5090918;28;20007;-67
2023/04/30 06:49:54;;;;;;;;;;;;;;;;;;5091438;28;19914;-67
2023/04/30 06:52:20;;;;;;;;;;;;;;;;;;5091132;28;19991;-68
2023/04/30 06:56:12;;;;;;;;;;;;;;;;;;5153365;27;19921;-68
2023/04/30 06:58:38;;;;;;;;;;;;;;;;;;5152920;27;20006;-69
2023/04/30 07:01:04;;;;;;;;;;;;;;;;;;5152574;27;19960;-68
2023/04/30 07:03:30;;;;;;;;;;;;;;;;;;5152811;27;19914;-68
2023/04/30 07:05:56;;;;;;;;;;;;;;;;;;5152689;27;19908;-70
2023/04/30 07:08:22;;;;;;;;;;;;;;;;;;5152279;27;19918;-69
2023/04/30 07:11:06;;;;;;;;;;;;;;;;;;5091692;28;19917;-68
2023/04/30 07:13:32;;;;;;;;;;;;;;;;;;5091311;28;20007;-70
2023/04/30 07:15:58;;;;;;;;;;;;;;;;;;5090913;28;20287;-69
2023/04/30 07:18:24;;;;;;;;;;;;;;;;;;5091144;28;19931;-69
2023/04/30 07:20:50;;;;;;;;;;;;;;;;;;5091037;28;19908;-68
2023/04/30 07:23:16;;;;;;;;;;;;;;;;;;5090635;28;20007;-68
2023/04/30 07:28:02;;;;;;;;;;;;;;;;;;5092370;27;19938;-69
2023/04/30 07:30:28;;;;;;;;;;;;;;;;;;5091103;28;20432;-68
2023/04/30 07:32:54;;;;;;;;;;;;;;;;;;5091254;28;20003;-68
2023/04/30 07:35:40;;;;;;;;;;;;;;;;;;5091212;27;19920;-69
2023/04/30 07:38:07;;;;;;;;;;;;;;;;;;5091278;28;19912;-68
2023/04/30 07:43:10;;;;;;;;;;;;;;;;;;5132058;27;19911;-68
2023/04/30 07:46:55;;;;;;;;;;;;;;;;;;5091301;27;19923;-67
2023/04/30 07:49:21;;;;;;;;;;;;;;;;;;5091479;28;19998;-69
2023/04/30 07:51:47;;;;;;;;;;;;;;;;;;5093519;28;20361;-69
2023/04/30 07:54:13;;;;;;;;;;;;;;;;;;5091231;28;19999;-68
2023/04/30 07:56:39;;;;;;;;;;;;;;;;;;5090764;28;19909;-68
2023/04/30 08:03:43;;;;;;;;;;;;;;;;;;5091323;27;19916;-67
2023/04/30 08:06:09;;;;;;;;;;;;;;;;;;5091064;28;20015;-67
2023/04/30 08:09:32;;;;;;;;;;;;;;;;;;5153284;27;20336;-67
2023/04/30 08:14:12;;;;;;;;;;;;;;;;;;5153081;27;20010;-68
2023/04/30 08:16:38;;;;;;;;;;;;;;;;;;5152805;27;19950;-68
2023/04/30 08:19:04;;;;;;;;;;;;;;;;;;5152408;27;20002;-68
2023/04/30 08:22:14;;;;;;;;;;;;;;;;;;5091754;27;19913;-68
2023/04/30 08:24:40;;;;;;;;;;;;;;;;;;5090878;28;20455;-68
2023/04/30 08:27:06;;;;;;;;;;;;;;;;;;5091268;28;19908;-68
2023/04/30 08:29:32;;;;;;;;;;;;;;;;;;5091335;28;20012;-69
2023/04/30 08:34:55;;;;;;;;;;;;;;;;;;5091984;27;19916;-68
2023/04/30 08:37:21;;;;;;;;;;;;;;;;;;5090063;28;20003;-68
2023/04/30 08:39:47;;;;;;;;;;;;;;;;;;5091029;28;19916;-69
2023/04/30 08:42:59;;;;;;;;;;;;;;;;;;5153313;27;19911;-68
2023/04/30 08:45:25;;;;;;;;;;;;;;;;;;5152932;27;19911;-70
2023/04/30 08:47:51;;;;;;;;;;;;;;;;;;5152391;27;19944;-69
2023/04/30 08:51:49;;;;;;;;;;;;;;;;;;5174260;27;19914;-69
2023/04/30 08:56:07;;;;;;;;;;;;;;;;;;5091850;27;19916;-69
2023/04/30 09:00:11;;;;;;;;;;;;;;;;;;5091132;28;19923;-69
2023/04/30 09:06:11;;;;;;;;;;;;;;;;;;5173804;27;19915;-69
2023/04/30 09:08:37;;;;;;;;;;;;;;;;;;5154644;27;20340;-71
2023/04/30 09:11:03;;;;;;;;;;;;;;;;;;5173567;27;19960;-68
2023/04/30 09:13:29;;;;;;;;;;;;;;;;;;5173554;27;19936;-68
2023/04/30 09:15:55;;;;;;;;;;;;;;;;;;5173154;27;19952;-68
2023/04/30 09:18:21;;;;;;;;;;;;;;;;;;5173481;27;19911;-68
2023/04/30 09:20:47;;;;;;;;;;;;;;;;;;5173422;27;19914;-68
2023/04/30 09:23:13;;;;;;;;;;;;;;;;;;5172926;27;19907;-68
2023/04/30 09:25:56;;;;;;;;;;;;;;;;;;5091824;27;20277;-68
2023/04/30 09:29:24;;;;;;;;;;;;;;;;;;5090991;27;19931;-66
2023/04/30 09:31:50;;;;;;;;;;;;;;;;;;5089910;28;20011;-68
2023/04/30 09:34:16;;;;;;;;;;;;;;;;;;5091250;28;20277;-67
2023/04/30 09:36:42;;;;;;;;;;;;;;;;;;5090958;28;20003;-68
2023/04/30 09:39:42;;;;;;;;;;;;;;;;;;5091836;27;19917;-67
2023/04/30 09:42:08;;;;;;;;;;;;;;;;;;5090825;28;20007;-67
2023/04/30 09:46:49;;;;;;;;;;;;;;;;;;5091919;27;19939;-68
2023/04/30 09:51:22;;;;;;;;;;;;;;;;;;5091066;27;19912;-68
2023/04/30 09:53:48;;;;;;;;;;;;;;;;;;5089932;28;19999;-67
2023/04/30 09:56:14;;;;;;;;;;;;;;;;;;5090814;28;19912;-67
2023/04/30 09:58:40;;;;;;;;;;;;;;;;;;5091299;28;19912;-67
2023/04/30 10:01:06;;;;;;;;;;;;;;;;;;5091035;28;20308;-67
2023/04/30 10:03:32;;;;;;;;;;;;;;;;;;5090626;28;19947;-67
2023/04/30 10:11:18;;;;;;;;;;;;;;;;;;5091062;27;19923;-67
2023/04/30 10:13:44;;;;;;;;;;;;;;;;;;5091161;28;20287;-67
2023/04/30 10:16:10;;;;;;;;;;;;;;;;;;5089912;28;19996;-67
2023/04/30 10:18:36;;;;;;;;;;;;;;;;;;5090706;28;19947;-67
2023/04/30 10:21:02;;;;;;;;;;;;;;;;;;5091031;28;19909;-67
2023/04/30 10:25:29;;;;;;;;;;;;;;;;;;5091232;27;19923;-67
2023/04/30 10:27:55;;;;;;;;;;;;;;;;;;5091263;28;20011;-67
2023/04/30 10:30:21;;;;;;;;;;;;;;;;;;5091248;28;19995;-68
2023/04/30 10:32:47;;;;;;;;;;;;;;;;;;5090791;28;19954;-67
2023/04/30 10:35:13;;;;;;;;;;;;;;;;;;5089776;28;19915;-67
2023/04/30 10:37:39;;;;;;;;;;;;;;;;;;5091062;28;19912;-67
2023/04/30 10:40:07;;;;;;;;;;;;;;;;;;5090652;28;20284;-67
2023/04/30 10:44:50;;;;;;;;;;;;;;;;;;5091601;28;19942;-67
2023/04/30 10:47:18;;;;;;;;;;;;;;;;;;5089499;28;19918;-67
2023/04/30 10:49:46;;;;;;;;;;;;;;;;;;5091427;28;19950;-67
2023/04/30 10:52:12;;;;;;;;;;;;;;;;;;5091162;28;19940;-67
2023/04/30 10:54:38;;;;;;;;;;;;;;;;;;5090799;28;19916;-67
2023/04/30 10:59:20;;;;;;;;;;;;;;;;;;5091192;27;20295;-67
2023/04/30 11:01:46;;;;;;;;;;;;;;;;;;5091622;28;19997;-67
2023/04/30 11:05:30;;;;;;;;;;;;;;;;;;5091729;27;19917;-67
2023/04/30 11:07:56;;;;;;;;;;;;;;;;;;5089604;28;19947;-67
2023/04/30 11:10:52;;;;;;;;;;;;;;;;;;5153167;27;19911;-67
2023/04/30 11:13:18;;;;;;;;;;;;;;;;;;5152608;27;20377;-67
2023/04/30 11:15:44;;;;;;;;;;;;;;;;;;5152269;27;19977;-69
2023/04/30 11:18:10;;;;;;;;;;;;;;;;;;5152692;27;19912;-67
2023/04/30 11:20:36;;;;;;;;;;;;;;;;;;5152394;27;19916;-67
2023/04/30 11:25:17;;;;;;;;;;;;;;;;;;5091369;28;20410;-67
2023/04/30 11:27:46;;;;;;;;;;;;;;;;;;5090805;28;20003;-67
2023/04/30 11:30:13;;;;;;;;;;;;;;;;;;5091338;28;19912;-67
2023/04/30 11:35:30;;;;;;;;;;;;;;;;;;5091213;28;19923;-67
2023/04/30 11:37:56;;;;;;;;;;;;;;;;;;5091165;28;20003;-66
2023/04/30 11:40:22;;;;;;;;;;;;;;;;;;5091174;28;19909;-67
2023/04/30 11:42:48;;;;;;;;;;;;;;;;;;5090675;28;19962;-67
2023/04/30 11:46:18;;;;;;;;;;;;;;;;;;5174206;27;19912;-67
2023/04/30 11:48:44;;;;;;;;;;;;;;;;;;5173161;27;19918;-67
2023/04/30 11:51:10;;;;;;;;;;;;;;;;;;5173553;27;19929;-67
2023/04/30 11:53:36;;;;;;;;;;;;;;;;;;5173492;27;19958;-67
2023/04/30 11:58:27;;;;;;;;;;;;;;;;;;5091854;27;19912;-67
2023/04/30 12:00:53;;;;;;;;;;;;;;;;;;5091251;28;19920;-67
2023/04/30 12:03:19;;;;;;;;;;;;;;;;;;5089444;28;19913;-67
2023/04/30 12:07:12;;;;;;;;;;;;;;;;;;5091661;27;19913;-67
2023/04/30 12:10:32;;;;;;;;;;;;;;;;;;5111663;27;20309;-67
2023/04/30 12:13:53;;;;;;;;;;;;;;;;;;5091876;27;19917;-67
2023/04/30 12:16:19;;;;;;;;;;;;;;;;;;5089950;28;20373;-67
2023/04/30 12:18:44;;;;;;;;;;;;;;;;;;5090544;28;19909;-68
2023/04/30 12:22:06;;;;;;;;;;;;;;;;;;5091189;27;20311;-68
2023/04/30 12:24:32;;;;;;;;;;;;;;;;;;5090782;28;19999;-68
2023/04/30 12:30:09;;;;;;;;;;;;;;;;;;5091443;27;19917;-67
2023/04/30 12:40:43;;;;;;;;;;;;;;;;;;5092070;27;19917;-67
2023/04/30 12:43:09;;;;;;;;;;;;;;;;;;5091188;28;19913;-67
2023/04/30 12:45:35;;;;;;;;;;;;;;;;;;5090790;28;19908;-67
2023/04/30 12:48:01;;;;;;;;;;;;;;;;;;5091417;28;19931;-67
2023/04/30 12:50:27;;;;;;;;;;;;;;;;;;5089694;28;19908;-67
2023/04/30 12:52:53;;;;;;;;;;;;;;;;;;5090691;28;19935;-67
2023/04/30 12:55:19;;;;;;;;;;;;;;;;;;5090960;28;19935;-67
2023/04/30 12:57:45;;;;;;;;;;;;;;;;;;5090929;28;19916;-67
2023/04/30 13:02:14;;;;;;;;;;;;;;;;;;5153272;27;20002;-67
2023/04/30 13:04:40;;;;;;;;;;;;;;;;;;5152737;27;19966;-67
2023/04/30 13:07:06;;;;;;;;;;;;;;;;;;5152229;27;19954;-67
2023/04/30 13:09:32;;;;;;;;;;;;;;;;;;5152548;27;20010;-67
2023/04/30 13:11:58;;;;;;;;;;;;;;;;;;5152627;27;19950;-67
2023/04/30 13:14:24;;;;;;;;;;;;;;;;;;5152145;27;19908;-67
2023/04/30 13:16:50;;;;;;;;;;;;;;;;;;5153167;27;20015;-67
2023/04/30 13:19:16;;;;;;;;;;;;;;;;;;5152418;27;19986;-67
2023/04/30 13:21:42;;;;;;;;;;;;;;;;;;5151946;27;20396;-67
2023/04/30 13:24:08;;;;;;;;;;;;;;;;;;5152696;27;19964;-67
2023/04/30 13:26:34;;;;;;;;;;;;;;;;;;5152369;27;20386;-67
2023/04/30 13:29:00;;;;;;;;;;;;;;;;;;5151972;27;19919;-67
2023/04/30 13:32:58;;;;;;;;;;;;;;;;;;5091731;28;19916;-67
2023/04/30 13:35:24;;;;;;;;;;;;;;;;;;5090831;28;20390;-67
2023/04/30 13:37:51;;;;;;;;;;;;;;;;;;5091333;28;20284;-67
2023/04/30 13:40:17;;;;;;;;;;;;;;;;;;5091214;28;19966;-67
2023/04/30 13:42:43;;;;;;;;;;;;;;;;;;5090768;28;19908;-67
2023/04/30 13:45:09;;;;;;;;;;;;;;;;;;5090922;28;19951;-67
2023/04/30 13:47:35;;;;;;;;;;;;;;;;;;5091088;28;19915;-67
2023/04/30 13:50:01;;;;;;;;;;;;;;;;;;5090462;28;19908;-67
2023/04/30 13:52:27;;;;;;;;;;;;;;;;;;5090849;28;19955;-67
2023/04/30 13:54:53;;;;;;;;;;;;;;;;;;5090882;28;19962;-67
2023/04/30 13:57:19;;;;;;;;;;;;;;;;;;5089092;28;19912;-67
2023/04/30 13:59:45;;;;;;;;;;;;;;;;;;5090571;28;19915;-68
2023/04/30 14:02:11;;;;;;;;;;;;;;;;;;5090550;28;20009;-67
2023/04/30 14:04:37;;;;;;;;;;;;;;;;;;5090730;28;19963;-67
2023/04/30 14:07:03;;;;;;;;;;;;;;;;;;5090673;28;19915;-67
2023/04/30 14:09:29;;;;;;;;;;;;;;;;;;5090168;28;19943;-67
2023/04/30 14:11:57;;;;;;;;;;;;;;;;;;5090656;28;19970;-67
2023/04/30 14:14:23;;;;;;;;;;;;;;;;;;5090584;28;19908;-67
2023/04/30 14:16:49;;;;;;;;;;;;;;;;;;5090120;28;19914;-68
2023/04/30 14:19:15;;;;;;;;;;;;;;;;;;5090521;28;20280;-67
2023/04/30 14:21:41;;;;;;;;;;;;;;;;;;5090374;28;20312;-68
2023/04/30 14:24:07;;;;;;;;;;;;;;;;;;5089972;28;20366;-68
2023/04/30 14:26:33;;;;;;;;;;;;;;;;;;5090607;28;19908;-68
2023/04/30 14:28:59;;;;;;;;;;;;;;;;;;5089055;28;19959;-68
2023/04/30 14:31:25;;;;;;;;;;;;;;;;;;5097422;28;20399;-68
2023/04/30 14:33:51;;;;;;;;;;;;;;;;;;5110501;28;19908;-68
2023/04/30 14:36:17;;;;;;;;;;;;;;;;;;5110463;28;19908;-68
2023/04/30 14:38:43;;;;;;;;;;;;;;;;;;5110080;28;19930;-68
2023/04/30 14:41:09;;;;;;;;;;;;;;;;;;5110417;28;19908;-68
2023/04/30 14:43:35;;;;;;;;;;;;;;;;;;5082544;28;19962;-68
2023/04/30 14:46:02;;;;;;;;;;;;;;;;;;5096313;28;19909;-68
2023/04/30 14:48:28;;;;;;;;;;;;;;;;;;5096778;28;19961;-68
2023/04/30 14:50:54;;;;;;;;;;;;;;;;;;5096409;28;19915;-68
2023/04/30 14:53:20;;;;;;;;;;;;;;;;;;5096224;28;19935;-68
2023/04/30 14:55:46;;;;;;;;;;;;;;;;;;5096534;28;19908;-67
2023/04/30 14:58:12;;;;;;;;;;;;;;;;;;5096536;28;19951;-68
2023/04/30 15:00:38;;;;;;;;;;;;;;;;;;5077821;28;20031;-68
2023/04/30 15:03:05;;;;;;;;;;;;;;;;;;5096238;28;19916;-68
2023/04/30 15:05:31;;;;;;;;;;;;;;;;;;5096110;28;20003;-68
2023/04/30 15:07:57;;;;;;;;;;;;;;;;;;5096303;28;19957;-68
2023/04/30 15:10:22;;;;;;;;;;;;;;;;;;5096244;28;20310;-68
2023/04/30 15:12:48;;;;;;;;;;;;;;;;;;5095912;28;19938;-68
2023/04/30 15:15:15;;;;;;;;;;;;;;;;;;5096099;28;19908;-68
2023/04/30 15:17:41;;;;;;;;;;;;;;;;;;5096213;28;20056;-68
2023/04/30 15:20:07;;;;;;;;;;;;;;;;;;5096010;28;20393;-68
2023/04/30 15:22:33;;;;;;;;;;;;;;;;;;5077768;28;19908;-67
2023/04/30 15:24:59;;;;;;;;;;;;;;;;;;5095930;28;19916;-67
2023/04/30 15:27:25;;;;;;;;;;;;;;;;;;5095522;28;19912;-68
2023/04/30 15:29:51;;;;;;;;;;;;;;;;;;5096221;28;20279;-70
2023/04/30 15:32:17;;;;;;;;;;;;;;;;;;5095612;28;19974;-69
2023/04/30 15:37:33;;;;;;;;;;;;;;;;;;5152900;27;20375;-69
2023/04/30 15:39:59;;;;;;;;;;;;;;;;;;5152761;27;19923;-68
2023/04/30 15:42:25;;;;;;;;;;;;;;;;;;5152298;27;20035;-68
2023/04/30 15:44:51;;;;;;;;;;;;;;;;;;5152706;27;19942;-69
2023/04/30 15:47:17;;;;;;;;;;;;;;;;;;5153029;27;20370;-68
2023/04/30 15:49:43;;;;;;;;;;;;;;;;;;5152209;27;20002;-68
2023/04/30 15:52:09;;;;;;;;;;;;;;;;;;5152689;27;19911;-68
2023/04/30 15:54:35;;;;;;;;;;;;;;;;;;5152512;27;20359;-68
2023/04/30 15:57:03;;;;;;;;;;;;;;;;;;5151973;27;20394;-67
2023/04/30 15:59:29;;;;;;;;;;;;;;;;;;5152456;27;19907;-67
2023/04/30 16:01:55;;;;;;;;;;;;;;;;;;5152234;27;19960;-68
2023/04/30 16:04:21;;;;;;;;;;;;;;;;;;5152369;27;19915;-69
2023/04/30 16:06:46;;;;;;;;;;;;;;;;;;5152789;27;19915;-68
2023/04/30 16:11:02;;;;;;;;;;;;;;;;;;5152374;27;19911;-67
2023/04/30 16:13:28;;;;;;;;;;;;;;;;;;5134275;27;19911;-67
2023/04/30 16:15:54;;;;;;;;;;;;;;;;;;5152328;27;20058;-67
2023/04/30 16:18:20;;;;;;;;;;;;;;;;;;5152629;27;20387;-67
2023/04/30 16:20:47;;;;;;;;;;;;;;;;;;5152435;27;20051;-67
2023/04/30 16:23:13;;;;;;;;;;;;;;;;;;5152221;27;20002;-67
2023/04/30 16:25:39;;;;;;;;;;;;;;;;;;5152494;27;19942;-69
2023/04/30 16:28:05;;;;;;;;;;;;;;;;;;5133998;27;19907;-68
2023/04/30 16:30:31;;;;;;;;;;;;;;;;;;5133529;27;20389;-68
2023/04/30 16:32:57;;;;;;;;;;;;;;;;;;5152801;27;20368;-68
2023/04/30 16:35:23;;;;;;;;;;;;;;;;;;5133913;27;19907;-69
2023/04/30 16:37:49;;;;;;;;;;;;;;;;;;5151960;27;19914;-68
2023/04/30 16:40:15;;;;;;;;;;;;;;;;;;5152163;27;19952;-69
2023/04/30 16:44:34;;;;;;;;;;;;;;;;;;5091549;27;19917;-69
2023/04/30 16:47:00;;;;;;;;;;;;;;;;;;5091308;28;19912;-69
2023/04/30 16:49:26;;;;;;;;;;;;;;;;;;5091223;28;19909;-68
2023/04/30 16:54:22;;;;;;;;;;;;;;;;;;5091369;27;19920;-67
2023/04/30 16:56:48;;;;;;;;;;;;;;;;;;5090007;28;19999;-67
2023/04/30 16:59:14;;;;;;;;;;;;;;;;;;5090819;28;19995;-68
2023/04/30 17:03:17;;;;;;;;;;;;;;;;;;5132740;27;19916;-67
2023/04/30 17:05:43;;;;;;;;;;;;;;;;;;5131681;28;19915;-67
2023/04/30 17:08:09;;;;;;;;;;;;;;;;;;5131999;28;19990;-67
2023/04/30 17:10:35;;;;;;;;;;;;;;;;;;5131991;28;19953;-68
2023/04/30 17:13:04;;;;;;;;;;;;;;;;;;5131559;28;20403;-68
2023/04/30 17:15:30;;;;;;;;;;;;;;;;;;5132025;28;20435;-68
2023/04/30 17:17:56;;;;;;;;;;;;;;;;;;5131889;28;19914;-68
2023/04/30 17:20:23;;;;;;;;;;;;;;;;;;5131375;28;19907;-67
2023/04/30 17:22:49;;;;;;;;;;;;;;;;;;5131747;28;19935;-67
2023/04/30 17:25:15;;;;;;;;;;;;;;;;;;5113312;28;19908;-69
2023/04/30 17:27:41;;;;;;;;;;;;;;;;;;5131423;28;19915;-68
2023/04/30 17:37:11;;;;;;;;;;;;;;;;;;5092020;27;19913;-69
2023/04/30 17:40:14;;;;;;;;;;;;;;;;;;5091305;27;19917;-69
2023/04/30 17:43:00;;;;;;;;;;;;;;;;;;5091737;27;19923;-68
2023/04/30 17:49:41;;;;;;;;;;;;;;;;;;5091151;27;19922;-67
2023/04/30 17:52:07;;;;;;;;;;;;;;;;;;5091340;28;19966;-68
2023/04/30 17:54:33;;;;;;;;;;;;;;;;;;5090860;28;19909;-68
2023/04/30 17:56:59;;;;;;;;;;;;;;;;;;5091361;28;19914;-67
2023/04/30 17:59:25;;;;;;;;;;;;;;;;;;5091069;28;19923;-69
2023/04/30 18:01:52;;;;;;;;;;;;;;;;;;5090622;28;19915;-68
2023/04/30 18:04:44;;;;;;;;;;;;;;;;;;5091352;27;19919;-67
2023/04/30 18:07:10;;;;;;;;;;;;;;;;;;5091257;28;19967;-70
2023/04/30 18:11:29;;;;;;;;;;;;;;;;;;5051069;28;19919;-68
2023/04/30 18:13:55;;;;;;;;;;;;;;;;;;5049661;28;19913;-68
2023/04/30 18:16:47;;;;;;;;;;;;;;;;;;5173285;27;20367;-67
2023/04/30 18:19:13;;;;;;;;;;;;;;;;;;5173580;27;19930;-67
2023/04/30 18:21:39;;;;;;;;;;;;;;;;;;5154874;27;19958;-67